createdAt,value
2022-08-04T00:00:11.124Z,23.45
2022-08-04T00:03:02.576Z,23.40
2022-08-04T00:05:31.027Z,23.28
2022-08-04T00:08:22.078Z,23.17
2022-08-04T00:10:55.060Z,23.20
2022-08-04T00:13:27.639Z,23.15
2022-08-04T00:15:58.966Z,23.16
2022-08-04T00:18:33.389Z,23.16
2022-08-04T00:21:05.452Z,23.07
2022-08-04T00:24:11.539Z,23.05
2022-08-04T00:26:21.986Z,23.02
2022-08-04T00:28:49.127Z,23.01
2022-08-04T00:31:16.461Z,22.97
2022-08-04T00:33:46.332Z,22.89
2022-08-04T00:36:13.330Z,22.81
2022-08-04T00:38:44.183Z,22.82
2022-08-04T00:41:57.041Z,22.70
2022-08-04T00:44:54.807Z,22.75
2022-08-04T00:47:50.642Z,22.73
2022-08-04T00:50:41.412Z,22.68
2022-08-04T00:53:18.012Z,22.58
2022-08-04T00:56:12.265Z,22.50
2022-08-04T00:59:11.168Z,22.36
2022-08-04T01:01:51.610Z,22.34
2022-08-04T01:04:22.329Z,22.27
2022-08-04T01:07:15.049Z,22.28
2022-08-04T01:10:04.441Z,22.34
2022-08-04T01:12:49.278Z,22.29
2022-08-04T01:15:26.592Z,22.22
2022-08-04T01:18:02.082Z,22.21
2022-08-04T01:20:35.536Z,22.20
2022-08-04T01:23:22.791Z,22.16
2022-08-04T01:26:43.625Z,22.11
2022-08-04T01:29:14.916Z,22.09
2022-08-04T01:32:02.794Z,22.06
2022-08-04T01:34:42.265Z,22.02
2022-08-04T01:37:17.589Z,21.97
2022-08-04T01:40:13.315Z,21.93
2022-08-04T01:42:41.732Z,21.92
2022-08-04T01:45:13.729Z,21.88
2022-08-04T01:47:58.400Z,21.81
2022-08-04T01:50:27.967Z,21.51
2022-08-04T01:52:55.469Z,21.56
2022-08-04T01:55:23.338Z,21.42
2022-08-04T01:57:53.513Z,21.41
2022-08-04T02:00:22.884Z,21.46
2022-08-04T02:02:50.589Z,21.41
2022-08-04T02:05:22.095Z,21.25
2022-08-04T02:08:18.069Z,21.31
2022-08-04T02:10:59.751Z,21.38
2022-08-04T02:13:57.425Z,21.43
2022-08-04T02:16:40.179Z,21.35
2022-08-04T02:19:31.092Z,21.35
2022-08-04T02:22:07.035Z,21.26
2022-08-04T02:24:35.818Z,21.10
2022-08-04T02:27:04.945Z,20.92
2022-08-04T02:29:41.020Z,21.03
2022-08-04T02:32:15.463Z,21.08
2022-08-04T02:35:05.631Z,21.10
2022-08-04T02:37:33.473Z,20.95
2022-08-04T02:40:03.085Z,20.97
2022-08-04T02:42:30.728Z,20.90
2022-08-04T02:44:59.919Z,20.93
2022-08-04T02:48:28.733Z,20.89
2022-08-04T02:50:28.363Z,20.86
2022-08-04T02:52:58.413Z,20.86
2022-08-04T02:55:27.306Z,20.78
2022-08-04T02:57:56.450Z,20.85
2022-08-04T03:00:22.979Z,20.86
2022-08-04T03:03:06.235Z,20.79
2022-08-04T03:05:57.592Z,20.83
2022-08-04T03:08:37.166Z,20.82
2022-08-04T03:11:40.372Z,20.69
2022-08-04T03:14:10.382Z,20.71
2022-08-04T03:17:05.183Z,20.70
2022-08-04T03:19:43.773Z,20.72
2022-08-04T03:22:16.043Z,20.65
2022-08-04T03:25:01.695Z,20.53
2022-08-04T03:27:56.311Z,20.45
2022-08-04T03:30:53.591Z,20.19
2022-08-04T03:33:43.273Z,20.11
2022-08-04T03:36:31.548Z,20.09
2022-08-04T03:41:59.955Z,20.18
2022-08-04T03:44:53.054Z,20.15
2022-08-04T03:47:51.965Z,20.16
2022-08-04T03:50:46.639Z,20.19
2022-08-04T03:53:31.492Z,20.19
2022-08-04T03:56:16.727Z,20.23
2022-08-04T03:59:07.192Z,20.13
2022-08-04T04:02:02.659Z,20.12
2022-08-04T04:05:21.463Z,20.17
2022-08-04T04:08:03.974Z,20.24
2022-08-04T04:10:54.890Z,20.20
2022-08-04T04:13:44.339Z,20.23
2022-08-04T04:16:29.045Z,20.23
2022-08-04T04:19:28.352Z,20.27
2022-08-04T04:22:03.746Z,20.30
2022-08-04T04:24:37.095Z,20.32
2022-08-04T04:27:15.947Z,20.28
2022-08-04T04:30:02.872Z,20.33
2022-08-04T04:33:00.192Z,20.32
2022-08-04T04:35:35.495Z,20.39
2022-08-04T04:38:22.215Z,20.45
2022-08-04T04:41:06.533Z,20.41
2022-08-04T04:44:11.275Z,20.48
2022-08-04T04:46:46.068Z,20.51
2022-08-04T04:49:31.067Z,20.57
2022-08-04T04:52:08.788Z,20.64
2022-08-04T04:54:53.156Z,20.76
2022-08-04T04:57:54.789Z,20.87
2022-08-04T05:00:13.648Z,20.83
2022-08-04T05:03:17.483Z,20.89
2022-08-04T05:05:59.132Z,20.95
2022-08-04T05:08:45.162Z,20.97
2022-08-04T05:11:21.955Z,20.99
2022-08-04T05:14:35.875Z,21.06
2022-08-04T05:16:47.618Z,21.05
2022-08-04T05:19:55.610Z,21.05
2022-08-04T05:22:40.120Z,21.11
2022-08-04T05:25:32.543Z,21.19
2022-08-04T05:28:10.029Z,21.27
2022-08-04T05:30:51.381Z,21.30
2022-08-04T05:33:47.252Z,21.30
2022-08-04T05:36:29.364Z,21.40
2022-08-04T05:39:06.124Z,21.43
2022-08-04T05:41:45.835Z,21.47
2022-08-04T05:44:18.756Z,21.40
2022-08-04T05:46:53.961Z,21.39
2022-08-04T05:49:27.013Z,21.46
2022-08-04T05:51:58.384Z,21.48
2022-08-04T05:54:25.810Z,21.56
2022-08-04T05:56:54.092Z,21.53
2022-08-04T05:59:21.555Z,21.62
2022-08-04T06:01:55.338Z,21.69
2022-08-04T06:04:28.020Z,21.73
2022-08-04T06:06:55.321Z,21.85
2022-08-04T06:09:22.027Z,21.92
2022-08-04T06:12:02.122Z,22.07
2022-08-04T06:14:38.255Z,22.25
2022-08-04T06:18:33.887Z,22.45
2022-08-04T06:20:02.799Z,22.61
2022-08-04T06:22:44.729Z,22.79
2022-08-04T06:25:16.837Z,22.89
2022-08-04T06:27:44.282Z,22.87
2022-08-04T06:30:14.503Z,23.00
2022-08-04T06:32:48.049Z,22.92
2022-08-04T06:35:20.357Z,22.89
2022-08-04T06:37:48.183Z,23.06
2022-08-04T06:40:39.085Z,23.03
2022-08-04T06:43:07.839Z,23.28
2022-08-04T06:45:37.139Z,23.40
2022-08-04T06:48:06.316Z,23.56
2022-08-04T06:51:30.200Z,23.50
2022-08-04T06:53:22.696Z,23.74
2022-08-04T06:55:50.315Z,24.05
2022-08-04T06:58:19.092Z,24.02
2022-08-04T07:00:47.540Z,24.24
2022-08-04T07:03:16.459Z,24.33
2022-08-04T07:05:43.971Z,24.47
2022-08-04T07:08:11.840Z,24.49
2022-08-04T07:10:39.252Z,24.70
2022-08-04T07:13:07.501Z,24.71
2022-08-04T07:15:35.849Z,24.83
2022-08-04T07:18:04.761Z,25.28
2022-08-04T07:20:36.171Z,25.24
2022-08-04T07:23:07.759Z,25.43
2022-08-04T07:25:58.529Z,25.44
2022-08-04T07:28:26.468Z,25.49
2022-08-04T07:30:54.427Z,25.61
2022-08-04T07:33:22.712Z,25.65
2022-08-04T07:36:09.548Z,25.94
2022-08-04T07:38:48.129Z,25.98
2022-08-04T07:41:39.041Z,26.28
2022-08-04T07:44:06.918Z,26.36
2022-08-04T07:46:33.931Z,26.39
2022-08-04T07:49:04.176Z,26.65
2022-08-04T07:51:32.551Z,26.54
2022-08-04T07:54:00.474Z,26.96
2022-08-04T07:56:28.121Z,27.60
2022-08-04T07:58:55.365Z,29.35
2022-08-04T08:01:23.621Z,29.57
2022-08-04T08:03:52.699Z,30.81
2022-08-04T08:06:33.027Z,31.91
2022-08-04T08:09:12.469Z,32.69
2022-08-04T08:12:35.578Z,34.43
2022-08-04T08:14:36.402Z,34.73
2022-08-04T08:17:04.775Z,35.59
2022-08-04T08:19:33.521Z,36.54
2022-08-04T08:22:01.618Z,36.45
2022-08-04T08:24:30.272Z,35.37
2022-08-04T08:27:00.281Z,34.78
2022-08-04T08:29:29.424Z,34.40
2022-08-04T08:32:01.320Z,34.17
2022-08-04T08:34:29.413Z,37.19
2022-08-04T08:37:15.783Z,38.79
2022-08-04T08:39:58.126Z,38.06
2022-08-04T08:42:48.830Z,38.87
2022-08-04T08:45:37.217Z,39.68
2022-08-04T08:48:05.816Z,38.99
2022-08-04T08:50:42.444Z,38.71
2022-08-04T08:53:23.270Z,38.77
2022-08-04T08:56:30.983Z,39.00
2022-08-04T08:59:28.848Z,36.46
2022-08-04T09:02:19.498Z,36.15
2022-08-04T09:04:59.353Z,36.04
2022-08-04T09:07:40.991Z,34.01
2022-08-04T09:10:45.278Z,34.49
2022-08-04T09:13:21.346Z,34.67
2022-08-04T09:16:05.066Z,35.41
2022-08-04T09:18:42.447Z,34.19
2022-08-04T09:21:23.390Z,35.69
2022-08-04T09:24:41.396Z,38.58
2022-08-04T09:27:39.666Z,35.90
2022-08-04T09:30:10.335Z,37.31
2022-08-04T09:32:41.388Z,36.39
2022-08-04T09:35:34.721Z,35.08
2022-08-04T09:38:23.432Z,36.22
2022-08-04T09:41:20.652Z,37.06
2022-08-04T09:44:49.905Z,39.53
2022-08-04T09:47:09.093Z,38.97
2022-08-04T09:50:01.773Z,36.89
2022-08-04T09:52:42.945Z,35.44
2022-08-04T09:55:17.515Z,37.31
2022-08-04T09:57:49.914Z,36.40
2022-08-04T10:00:17.814Z,37.13
2022-08-04T10:02:50.276Z,37.79
2022-08-04T10:05:22.963Z,35.66
2022-08-04T10:08:17.280Z,35.19
2022-08-04T10:11:21.554Z,34.09
2022-08-04T10:13:56.718Z,34.61
2022-08-04T10:16:42.143Z,34.02
2022-08-04T10:19:25.801Z,33.94
2022-08-04T10:22:27.438Z,33.85
2022-08-04T10:25:37.531Z,34.21
2022-08-04T10:28:06.064Z,34.30
2022-08-04T10:30:38.458Z,34.87
2022-08-04T10:33:24.650Z,35.95
2022-08-04T10:36:00.188Z,35.68
2022-08-04T10:38:51.160Z,37.71
2022-08-04T10:41:39.501Z,40.25
2022-08-04T10:44:28.464Z,40.84
2022-08-04T10:47:08.140Z,40.55
2022-08-04T10:49:45.609Z,39.56
2022-08-04T10:52:55.149Z,39.39
2022-08-04T10:56:07.680Z,38.64
2022-08-04T10:58:48.685Z,39.25
2022-08-04T11:01:59.950Z,39.37
2022-08-04T11:04:30.548Z,40.62
2022-08-04T11:07:00.260Z,41.49
2022-08-04T11:09:28.979Z,40.89
2022-08-04T11:12:06.423Z,36.86
2022-08-04T11:14:46.892Z,35.20
2022-08-04T11:17:24.583Z,34.31
2022-08-04T11:20:12.390Z,34.00
2022-08-04T11:23:03.014Z,33.74
2022-08-04T11:25:51.976Z,33.68
2022-08-04T11:28:55.839Z,33.83
2022-08-04T11:31:39.537Z,33.49
2022-08-04T11:34:20.753Z,33.31
2022-08-04T11:37:25.287Z,33.28
2022-08-04T11:40:25.568Z,33.20
2022-08-04T11:42:57.209Z,33.23
2022-08-04T11:45:51.024Z,33.20
2022-08-04T11:48:29.899Z,33.08
2022-08-04T11:50:59.075Z,33.27
2022-08-04T11:53:36.350Z,33.46
2022-08-04T11:56:11.048Z,33.65
2022-08-04T11:58:38.580Z,33.64
2022-08-04T12:01:25.652Z,33.77
2022-08-04T12:04:36.569Z,33.36
2022-08-04T12:07:46.602Z,32.98
2022-08-04T12:10:41.551Z,33.07
2022-08-04T12:13:33.968Z,33.03
2022-08-04T12:16:15.707Z,33.24
2022-08-04T12:18:48.278Z,33.12
2022-08-04T12:21:28.047Z,33.08
2022-08-04T12:24:00.775Z,33.01
2022-08-04T12:26:32.582Z,32.94
2022-08-04T12:29:11.185Z,32.23
2022-08-04T12:31:58.375Z,31.74
2022-08-04T12:34:45.520Z,31.18
2022-08-04T12:37:48.305Z,31.19
2022-08-04T12:40:30.137Z,31.06
2022-08-04T12:43:10.439Z,31.17
2022-08-04T12:45:44.702Z,31.36
2022-08-04T12:48:20.730Z,31.59
2022-08-04T12:50:54.026Z,32.29
2022-08-04T12:53:31.816Z,32.18
2022-08-04T12:56:02.361Z,31.93
2022-08-04T12:58:42.306Z,31.63
2022-08-04T13:02:06.930Z,31.17
2022-08-04T13:04:17.991Z,31.47
2022-08-04T13:06:51.803Z,31.90
2022-08-04T13:09:23.447Z,32.35
2022-08-04T13:12:02.524Z,31.89
2022-08-04T13:14:38.323Z,31.75
2022-08-04T13:17:06.539Z,32.42
2022-08-04T13:19:41.434Z,32.40
2022-08-04T13:22:09.004Z,32.09
2022-08-04T13:24:56.304Z,32.08
2022-08-04T13:27:25.017Z,31.66
2022-08-04T13:30:00.412Z,31.89
2022-08-04T13:32:32.259Z,32.08
2022-08-04T13:35:02.324Z,32.19
2022-08-04T13:37:36.926Z,31.93
2022-08-04T13:40:06.507Z,32.08
2022-08-04T13:42:35.780Z,32.12
2022-08-04T13:45:06.477Z,32.09
2022-08-04T13:47:37.218Z,32.04
2022-08-04T13:50:17.458Z,32.13
2022-08-04T13:52:45.195Z,32.06
2022-08-04T13:55:26.846Z,31.59
2022-08-04T13:57:58.756Z,31.85
2022-08-04T14:00:36.761Z,31.56
2022-08-04T14:03:19.194Z,31.76
2022-08-04T14:06:18.145Z,32.27
2022-08-04T14:08:51.078Z,32.17
2022-08-04T14:11:21.100Z,32.19
2022-08-04T14:14:32.478Z,32.11
2022-08-04T14:17:20.922Z,31.68
2022-08-04T14:19:50.108Z,31.55
2022-08-04T14:22:25.850Z,31.59
2022-08-04T14:25:16.609Z,31.85
2022-08-04T14:27:45.449Z,32.08
2022-08-04T14:30:27.696Z,32.09
2022-08-04T14:34:00.696Z,31.72
2022-08-04T14:36:04.173Z,31.83
2022-08-04T14:38:57.350Z,31.88
2022-08-04T14:41:31.588Z,31.67
2022-08-04T14:44:03.660Z,31.40
2022-08-04T14:46:36.542Z,31.23
2022-08-04T14:49:10.489Z,31.28
2022-08-04T14:52:01.562Z,31.36
2022-08-04T14:54:33.194Z,31.24
2022-08-04T14:57:06.144Z,30.99
2022-08-04T15:00:01.730Z,30.92
2022-08-04T15:02:30.596Z,30.78
2022-08-04T15:04:58.303Z,30.73
2022-08-04T15:07:25.502Z,30.71
2022-08-04T15:09:52.509Z,30.84
2022-08-04T15:12:20.617Z,30.62
2022-08-04T15:14:47.642Z,30.61
2022-08-04T15:17:29.309Z,30.52
2022-08-04T15:19:57.329Z,30.50
2022-08-04T15:22:24.065Z,30.61
2022-08-04T15:24:55.261Z,30.64
2022-08-04T15:27:26.748Z,30.63
2022-08-04T15:30:02.020Z,30.63
2022-08-04T15:32:34.246Z,30.42
2022-08-04T15:35:12.744Z,30.33
2022-08-04T15:37:46.338Z,30.31
2022-08-04T15:40:33.569Z,30.17
2022-08-04T15:43:00.436Z,30.09
2022-08-04T15:46:02.483Z,29.95
2022-08-04T15:48:21.764Z,29.69
2022-08-04T15:50:58.007Z,29.75
2022-08-04T15:54:02.345Z,29.77
2022-08-04T15:56:30.766Z,29.66
2022-08-04T15:58:57.705Z,29.47
2022-08-04T16:01:24.888Z,29.32
2022-08-04T16:04:00.519Z,29.26
2022-08-04T16:06:29.699Z,29.25
2022-08-04T16:09:04.690Z,29.22
2022-08-04T16:11:36.879Z,29.20
2022-08-04T16:14:03.881Z,29.04
2022-08-04T16:16:32.924Z,29.06
2022-08-04T16:19:06.344Z,29.05
2022-08-04T16:21:48.708Z,29.05
2022-08-04T16:24:36.812Z,28.99
2022-08-04T16:27:11.794Z,28.88
2022-08-04T16:29:43.237Z,28.71
2022-08-04T16:32:15.573Z,28.66
2022-08-04T16:35:17.240Z,28.79
2022-08-04T16:37:43.796Z,28.60
2022-08-04T16:40:38.103Z,28.78
2022-08-04T16:43:06.468Z,28.71
2022-08-04T16:45:48.067Z,28.71
2022-08-04T16:48:17.239Z,28.83
2022-08-04T16:50:51.239Z,28.77
2022-08-04T16:53:51.479Z,28.53
2022-08-04T16:56:07.114Z,28.58
2022-08-04T16:58:36.795Z,28.58
2022-08-04T17:01:09.303Z,28.52
2022-08-04T17:03:38.619Z,28.65
2022-08-04T17:06:14.885Z,28.67
2022-08-04T17:08:42.424Z,28.83
2022-08-04T17:11:10.135Z,29.00
2022-08-04T17:14:03.348Z,29.18
2022-08-04T17:16:34.399Z,29.17
2022-08-04T17:19:01.968Z,28.99
2022-08-04T17:21:31.650Z,28.91
2022-08-04T17:24:15.755Z,28.78
2022-08-04T17:26:51.566Z,28.45
2022-08-04T17:29:21.638Z,28.43
2022-08-04T17:31:48.331Z,28.45
2022-08-04T17:34:19.452Z,28.47
2022-08-04T17:36:47.728Z,28.53
2022-08-04T17:39:17.182Z,28.42
2022-08-04T17:41:49.232Z,28.40
2022-08-04T17:44:16.788Z,28.32
2022-08-04T17:46:48.090Z,28.24
2022-08-04T17:49:17.801Z,28.33
2022-08-04T17:52:04.698Z,28.34
2022-08-04T17:54:37.454Z,28.22
2022-08-04T17:57:21.293Z,28.22
2022-08-04T17:59:56.969Z,28.18
2022-08-04T18:02:31.926Z,28.11
2022-08-04T18:08:41.416Z,28.12
2022-08-04T18:10:56.118Z,27.86
2022-08-04T18:13:27.780Z,27.82
2022-08-04T18:16:04.416Z,27.87
2022-08-04T18:18:31.062Z,27.90
2022-08-04T18:20:59.618Z,27.97
2022-08-04T18:23:32.152Z,27.97
2022-08-04T18:26:02.098Z,27.97
2022-08-04T18:28:31.320Z,27.75
2022-08-04T18:31:01.063Z,27.68
2022-08-04T18:33:39.722Z,27.66
2022-08-04T18:36:34.558Z,27.71
2022-08-04T18:38:58.681Z,27.68
2022-08-04T18:41:27.742Z,27.67
2022-08-04T18:43:57.511Z,27.57
2022-08-04T18:46:27.150Z,27.45
2022-08-04T18:48:54.515Z,27.39
2022-08-04T18:51:24.962Z,27.33
2022-08-04T18:53:58.728Z,27.25
2022-08-04T18:56:29.969Z,27.25
2022-08-04T18:59:05.188Z,27.08
2022-08-04T19:02:12.672Z,27.05
2022-08-04T19:04:33.815Z,26.95
2022-08-04T19:07:29.263Z,26.90
2022-08-04T19:09:53.849Z,26.84
2022-08-04T19:12:26.293Z,26.70
2022-08-04T19:14:58.673Z,26.55
2022-08-04T19:17:53.702Z,26.41
2022-08-04T19:20:25.073Z,26.30
2022-08-04T19:24:23.404Z,26.22
2022-08-04T19:25:58.783Z,26.14
2022-08-04T19:28:33.928Z,26.09
2022-08-04T19:31:01.628Z,26.02
2022-08-04T19:33:28.536Z,25.98
2022-08-04T19:36:17.273Z,25.96
2022-08-04T19:38:44.708Z,25.84
2022-08-04T19:41:14.667Z,25.75
2022-08-04T19:43:43.984Z,25.76
2022-08-04T19:46:12.212Z,25.73
2022-08-04T19:48:39.863Z,25.75
2022-08-04T19:51:07.752Z,25.63
2022-08-04T19:53:37.398Z,25.61
2022-08-04T19:56:05.104Z,25.57
2022-08-04T19:58:31.685Z,25.52
2022-08-04T20:00:58.291Z,25.55
2022-08-04T20:04:08.048Z,25.50
2022-08-04T20:06:11.852Z,25.42
2022-08-04T20:08:38.465Z,25.38
2022-08-04T20:11:16.358Z,25.35
2022-08-04T20:13:45.003Z,25.37
2022-08-04T20:16:30.215Z,25.27
2022-08-04T20:19:02.882Z,25.20
2022-08-04T20:21:53.562Z,25.19
2022-08-04T20:27:09.067Z,25.16
2022-08-04T20:29:43.394Z,25.11
2022-08-04T20:32:13.421Z,24.97
2022-08-04T20:34:42.652Z,24.96
2022-08-04T20:37:10.481Z,25.00
2022-08-04T20:39:37.760Z,24.96
2022-08-04T20:42:04.564Z,24.96
2022-08-04T20:44:31.144Z,24.92
2022-08-04T20:46:57.733Z,24.91
2022-08-04T20:49:34.913Z,24.82
2022-08-04T20:52:13.348Z,24.83
2022-08-04T20:54:42.706Z,24.85
2022-08-04T20:57:16.485Z,24.83
2022-08-04T20:59:43.847Z,24.80
2022-08-04T21:02:21.068Z,24.74
2022-08-04T21:04:48.757Z,24.78
2022-08-04T21:07:16.910Z,24.76
2022-08-04T21:09:49.937Z,24.75
2022-08-04T21:12:28.464Z,24.71
2022-08-04T21:15:01.368Z,24.70
2022-08-04T21:17:58.457Z,24.67
2022-08-04T21:20:27.725Z,24.59
2022-08-04T21:22:55.000Z,24.61
2022-08-04T21:25:22.304Z,24.58
2022-08-04T21:27:49.817Z,24.61
2022-08-04T21:30:25.419Z,24.55
2022-08-04T21:32:55.311Z,24.47
2022-08-04T21:35:30.070Z,24.34
2022-08-04T21:38:17.642Z,24.38
2022-08-04T21:40:55.567Z,24.26
2022-08-04T21:43:27.411Z,24.31
2022-08-04T21:45:56.668Z,24.33
2022-08-04T21:48:27.708Z,24.35
2022-08-04T21:50:54.789Z,24.38
2022-08-04T21:53:21.508Z,24.41
2022-08-04T21:56:05.847Z,24.40
2022-08-04T21:58:36.099Z,24.44
2022-08-04T22:01:12.606Z,24.32
2022-08-04T22:03:53.506Z,24.32
2022-08-04T22:09:14.691Z,24.07
2022-08-04T22:11:50.755Z,24.03
2022-08-04T22:14:29.070Z,24.11
2022-08-04T22:16:56.673Z,24.10
2022-08-04T22:19:39.554Z,24.21
2022-08-04T22:22:12.626Z,24.05
2022-08-04T22:24:51.813Z,23.99
2022-08-04T22:27:36.708Z,24.06
2022-08-04T22:30:09.230Z,24.11
2022-08-04T22:32:43.640Z,24.01
2022-08-04T22:35:42.854Z,24.04
2022-08-04T22:38:07.402Z,24.03
2022-08-04T22:40:38.246Z,23.84
2022-08-04T22:43:31.381Z,23.63
2022-08-04T22:45:51.644Z,23.51
2022-08-04T22:48:18.619Z,23.34
2022-08-04T22:50:45.193Z,23.18
2022-08-04T22:53:11.744Z,23.15
2022-08-04T22:56:07.655Z,23.06
2022-08-04T22:58:31.651Z,22.99
2022-08-04T23:00:58.568Z,22.84
2022-08-04T23:03:37.710Z,22.75
2022-08-04T23:06:10.788Z,22.47
2022-08-04T23:08:39.197Z,22.18
2022-08-04T23:11:10.324Z,22.09
2022-08-04T23:13:37.764Z,21.99
2022-08-04T23:16:10.214Z,22.05
2022-08-04T23:18:42.146Z,22.17
2022-08-04T23:21:11.066Z,22.27
2022-08-04T23:23:47.882Z,22.28
2022-08-04T23:26:27.799Z,22.24
2022-08-04T23:28:56.097Z,22.27
2022-08-04T23:31:23.392Z,22.27
2022-08-04T23:33:51.435Z,22.28
2022-08-04T23:36:29.885Z,22.25
2022-08-04T23:39:05.552Z,22.24
2022-08-04T23:41:53.319Z,22.22
2022-08-04T23:44:24.288Z,22.18
2022-08-04T23:47:00.823Z,22.20
2022-08-04T23:49:44.197Z,22.13
2022-08-04T23:52:28.066Z,22.08
2022-08-04T23:54:58.171Z,22.17
2022-08-04T23:57:25.160Z,22.17
2022-08-04T23:59:58.666Z,22.16
